Time;durP1;ratioP1;P1;durP2;ratioP2;P2;SDS_P1;SDS_P2;PMS_P1;PMS_P2;Temp;Humidity;BMP_temperature;BMP_pressure;BME280_temperature;BME280_humidity;BME280_pressure;Samples;Min_cycle;Max_cycle;Signal;HPM_P1;HPM_P2
2022/08/20 00:02:23;;;;;;;11.28;5.58;;;;;;;20.36;93.48;96233.19;1731083;81;21563;-80
2022/08/20 00:04:50;;;;;;;11.08;4.90;;;;;;;20.32;93.64;96243.14;1734418;81;20998;-80
2022/08/20 00:07:16;;;;;;;13.05;4.62;;;;;;;20.30;94.00;96243.39;1735939;81;21357;-80
2022/08/20 00:09:42;;;;;;;9.88;3.75;;;;;;;20.27;94.05;96241.25;1744500;81;20937;-79
2022/08/20 00:12:09;;;;;;;10.88;4.78;;;;;;;20.21;92.77;96233.53;1735396;81;21022;-80
2022/08/20 00:14:35;;;;;;;8.68;3.33;;;;;;;20.16;93.85;96236.88;1734747;81;21413;-79
2022/08/20 00:17:02;;;;;;;11.25;4.15;;;;;;;20.16;92.23;96227.66;1742669;81;21054;-79
2022/08/20 00:19:27;;;;;;;10.50;3.70;;;;;;;20.17;91.35;96217.89;1730937;81;20946;-80
2022/08/20 00:21:53;;;;;;;11.95;5.40;;;;;;;20.19;92.29;96210.56;1737108;81;20993;-80
2022/08/20 00:24:19;;;;;;;8.48;3.30;;;;;;;20.19;92.20;96200.80;1738561;81;20976;-80
2022/08/20 00:26:44;;;;;;;10.38;3.58;;;;;;;20.19;90.56;96200.01;1737578;81;21388;-80
2022/08/20 00:29:10;;;;;;;9.90;3.58;;;;;;;20.23;89.22;96197.94;1736571;81;21094;-79
2022/08/20 00:31:36;;;;;;;9.78;3.65;;;;;;;20.31;88.23;96181.66;1731663;81;21004;-80
2022/08/20 00:34:02;;;;;;;8.88;3.40;;;;;;;20.38;88.34;96163.80;1731872;81;21439;-79
2022/08/20 00:36:27;;;;;;;8.43;3.40;;;;;;;20.42;89.50;96160.17;1736740;81;20996;-79
2022/08/20 00:38:53;;;;;;;10.00;3.47;;;;;;;20.39;89.92;96166.72;1730813;81;21083;-80
2022/08/20 00:41:23;;;;;;;10.05;3.22;;;;;;;20.36;90.35;96179.62;1733882;81;21008;-79
2022/08/20 00:43:53;;;;;;;8.23;4.22;;;;;;;20.28;91.02;96191.39;1738944;81;21035;-80
2022/08/20 00:46:23;;;;;;;6.85;3.60;;;;;;;20.22;91.78;96224.05;1733144;81;21036;-79
2022/08/20 00:48:53;;;;;;;7.65;3.60;;;;;;;20.16;92.36;96236.09;1734358;81;20996;-79
2022/08/20 00:51:37;;;;;;;7.70;3.70;;;;;;;20.08;92.54;96253.16;1738266;81;22033;-79
2022/08/20 00:54:09;;;;;;;8.55;4.60;;;;;;;20.01;92.92;96244.61;1731357;81;20998;-79
2022/08/20 00:56:35;;;;;;;8.23;4.28;;;;;;;19.93;93.14;96241.88;1730466;81;21066;-79
2022/08/20 00:59:01;;;;;;;9.70;4.25;;;;;;;19.82;93.08;96244.09;1744307;81;21394;-79
2022/08/20 01:01:27;;;;;;;8.10;3.70;;;;;;;19.79;93.48;96245.91;1740423;80;21021;-79
2022/08/20 01:03:55;;;;;;;13.22;4.28;;;;;;;19.74;93.75;96240.05;1738567;80;21603;-79
2022/08/20 01:06:23;;;;;;;8.88;4.42;;;;;;;19.72;94.11;96247.92;1737782;81;21117;-79
2022/08/20 01:08:49;;;;;;;12.45;3.75;;;;;;;19.68;94.65;96247.59;1739797;80;20950;-79
2022/08/20 01:11:16;;;;;;;7.12;3.30;;;;;;;19.69;94.95;96242.63;1740145;81;21053;-79
2022/08/20 01:13:43;;;;;;;8.35;3.80;;;;;;;19.68;95.02;96243.64;1739130;80;21086;-79
2022/08/20 01:16:15;;;;;;;8.43;3.47;;;;;;;19.66;94.76;96239.12;1740329;80;21012;-79
2022/08/20 01:18:41;;;;;;;12.50;3.52;;;;;;;19.64;94.59;96230.67;1739879;80;20925;-79
2022/08/20 01:21:07;;;;;;;9.18;3.35;;;;;;;19.62;94.51;96226.69;1736892;80;20963;-79
2022/08/20 01:23:58;;;;;;;9.13;3.25;;;;;;;19.58;94.56;96225.06;1743540;81;20996;-79
2022/08/20 01:26:30;;;;;;;6.35;3.00;;;;;;;19.56;94.85;96213.97;1738484;80;22037;-80
2022/08/20 01:29:10;;;;;;;11.40;4.28;;;;;;;19.55;95.21;96212.37;1741478;81;21039;-80
2022/08/20 01:31:37;;;;;;;7.70;3.65;;;;;;;19.53;95.19;96210.47;1741300;81;20982;-79
2022/08/20 01:34:06;;;;;;;8.55;4.37;;;;;;;19.48;95.27;96206.43;1739180;80;20950;-80
2022/08/20 01:36:42;;;;;;;11.25;4.03;;;;;;;19.48;95.30;96207.74;1746674;80;21030;-79
2022/08/20 01:39:10;;;;;;;12.00;3.55;;;;;;;19.47;95.25;96209.58;1739395;81;20956;-80
2022/08/20 01:42:11;;;;;;;12.10;4.60;;;;;;;19.46;95.46;96204.04;1742341;80;20960;-80
2022/08/20 01:44:38;;;;;;;12.78;4.83;;;;;;;19.44;95.52;96204.00;1735803;80;20915;-79
2022/08/20 01:47:14;;;;;;;8.98;4.08;;;;;;;19.41;95.88;96204.49;1741254;81;21358;-80
2022/08/20 01:49:48;;;;;;;7.78;4.75;;;;;;;19.39;95.93;96207.89;1712680;81;21010;-79
2022/08/20 01:52:23;;;;;;;13.10;5.42;;;;;;;19.35;95.91;96208.08;1736413;80;21355;-79
2022/08/20 01:54:48;;;;;;;9.70;4.22;;;;;;;19.32;96.31;96205.92;1737573;80;21467;-79
2022/08/20 01:57:16;;;;;;;10.25;4.78;;;;;;;19.30;96.22;96206.17;1739572;80;21084;-79
2022/08/20 01:59:42;;;;;;;9.58;4.97;;;;;;;19.29;96.27;96209.05;1740349;80;21010;-79
2022/08/20 02:02:08;;;;;;;11.60;4.85;;;;;;;19.27;96.39;96209.81;1738800;80;21037;-79
2022/08/20 02:04:34;;;;;;;14.43;4.03;;;;;;;19.27;96.60;96209.81;1737246;80;20994;-79
2022/08/20 02:07:03;;;;;;;11.73;4.80;;;;;;;19.25;96.71;96215.32;1741724;80;20994;-79
2022/08/20 02:09:32;;;;;;;12.43;4.78;;;;;;;19.24;96.82;96217.67;1743286;80;21006;-79
2022/08/20 02:11:58;;;;;;;12.60;4.60;;;;;;;19.24;96.82;96214.25;1742271;81;21783;-79
2022/08/20 02:14:24;;;;;;;12.13;4.58;;;;;;;19.23;97.10;96221.34;1749579;80;21040;-79
2022/08/20 02:16:50;;;;;;;10.15;4.17;;;;;;;19.23;97.34;96221.88;1738820;80;21056;-79
2022/08/20 02:19:22;;;;;;;12.47;5.10;;;;;;;19.24;97.90;96221.63;1738931;80;21108;-79
2022/08/20 02:21:52;;;;;;;12.82;4.30;;;;;;;19.27;97.83;96223.78;1742300;80;21057;-79
2022/08/20 02:24:18;;;;;;;11.48;4.92;;;;;;;19.27;97.81;96221.66;1739205;80;21326;-79
2022/08/20 02:26:44;;;;;;;11.10;5.28;;;;;;;19.26;97.81;96220.06;1740974;80;21308;-78
2022/08/20 02:29:11;;;;;;;13.03;4.55;;;;;;;19.27;98.17;96218.51;1746102;81;21021;-79
2022/08/20 02:31:38;;;;;;;8.48;3.80;;;;;;;19.28;98.14;96217.98;1739507;80;21217;-79
2022/08/20 02:34:05;;;;;;;11.20;4.30;;;;;;;19.26;98.15;96209.02;1743419;80;20966;-79
2022/08/20 02:36:31;;;;;;;12.18;4.53;;;;;;;19.26;98.38;96207.70;1743561;80;21404;-79
2022/08/20 02:38:57;;;;;;;10.78;4.28;;;;;;;19.25;98.09;96203.47;1740215;81;21025;-79
2022/08/20 02:41:22;;;;;;;15.70;4.40;;;;;;;19.24;97.85;96203.19;1742099;80;20986;-79
2022/08/20 02:43:50;;;;;;;9.60;4.78;;;;;;;19.24;97.88;96214.25;1741762;80;21517;-79
2022/08/20 02:46:20;;;;;;;10.00;4.33;;;;;;;19.24;97.95;96209.77;1739741;80;21368;-79
2022/08/20 02:48:46;;;;;;;9.15;4.60;;;;;;;19.24;98.16;96220.83;1707041;82;20994;-80
2022/08/20 02:51:11;;;;;;;10.05;4.30;;;;;;;19.23;98.27;96221.88;1664266;84;21437;-79
2022/08/20 02:53:40;;;;;;;10.08;4.05;;;;;;;19.22;98.52;96221.59;1701512;83;21032;-79
2022/08/20 02:56:06;;;;;;;11.65;4.47;;;;;;;19.23;98.51;96211.34;1701334;83;21019;-80
2022/08/20 02:58:34;;;;;;;9.20;4.20;;;;;;;19.23;98.58;96204.75;1700530;82;21019;-78
2022/08/20 03:01:01;;;;;;;8.95;3.98;;;;;;;19.15;98.59;96192.25;1700214;83;20971;-79
2022/08/20 03:03:26;;;;;;;12.28;4.33;;;;;;;19.19;98.38;96205.72;1700645;83;21515;-79
2022/08/20 03:05:55;;;;;;;11.48;5.30;;;;;;;19.18;97.61;96210.20;1699676;84;21079;-79
2022/08/20 03:08:21;;;;;;;7.78;4.28;;;;;;;19.18;98.10;96209.40;1700645;82;21473;-79
2022/08/20 03:10:47;;;;;;;15.03;4.70;;;;;;;19.15;97.85;96200.14;1699503;82;21031;-79
2022/08/20 03:13:14;;;;;;;11.08;4.53;;;;;;;19.15;97.89;96201.98;1699972;83;21035;-79
2022/08/20 03:15:49;;;;;;;11.10;4.25;;;;;;;19.14;97.68;96202.50;1698939;82;21003;-79
2022/08/20 03:18:15;;;;;;;10.50;4.40;;;;;;;19.17;97.53;96205.17;1701103;82;21003;-79
2022/08/20 03:20:42;;;;;;;11.15;4.47;;;;;;;19.18;97.08;96202.81;1699376;82;21036;-79
2022/08/20 03:23:07;;;;;;;11.03;4.58;;;;;;;19.17;97.07;96199.38;1701641;83;21319;-79
2022/08/20 03:25:33;;;;;;;12.35;5.03;;;;;;;19.15;97.60;96194.88;1701443;83;20963;-78
2022/08/20 03:27:59;;;;;;;11.38;4.53;;;;;;;19.15;97.74;96192.25;1700660;82;20999;-79
2022/08/20 03:30:26;;;;;;;10.90;4.83;;;;;;;19.13;97.99;96186.94;1700333;82;21663;-79
2022/08/20 03:32:52;;;;;;;11.88;4.20;;;;;;;19.13;98.13;96196.95;1701241;82;21002;-79
2022/08/20 03:35:19;;;;;;;8.88;4.05;;;;;;;19.12;98.17;96195.36;1700784;83;21054;-79
2022/08/20 03:37:45;;;;;;;9.33;4.33;;;;;;;19.14;98.17;96193.80;1699829;82;21063;-79
2022/08/20 03:40:15;;;;;;;15.35;5.92;;;;;;;19.15;97.82;96191.45;1682087;83;21470;-79
2022/08/20 03:42:42;;;;;;;6.87;3.75;;;;;;;19.16;97.95;96208.84;1702558;82;20953;-79
2022/08/20 03:45:08;;;;;;;15.95;5.35;;;;;;;19.14;98.37;96201.19;1702833;82;20953;-80
2022/08/20 03:47:34;;;;;;;14.85;4.65;;;;;;;19.13;98.70;96183.79;1706830;82;21043;-79
2022/08/20 03:50:01;;;;;;;17.42;5.08;;;;;;;19.11;99.48;96174.54;1718339;82;20997;-79
2022/08/20 03:52:28;;;;;;;13.80;5.20;;;;;;;19.09;100.00;96150.28;1704286;82;21549;-79
2022/08/20 03:54:55;;;;;;;14.28;4.67;;;;;;;19.07;99.89;96169.48;1702031;82;21034;-80
2022/08/20 03:57:20;;;;;;;14.40;4.92;;;;;;;19.05;100.00;96161.82;1702854;83;21084;-79
2022/08/20 03:59:46;;;;;;;12.65;4.70;;;;;;;19.05;100.00;96164.45;1712621;82;21450;-79
2022/08/20 04:02:12;;;;;;;12.85;4.60;;;;;;;19.04;100.00;96165.50;1713513;82;21048;-79
2022/08/20 04:04:39;;;;;;;13.30;5.40;;;;;;;19.05;100.00;96164.97;1713881;83;21054;-79
2022/08/20 04:07:15;;;;;;;10.63;4.87;;;;;;;19.06;100.00;96166.57;1717005;82;21362;-79
2022/08/20 04:09:42;;;;;;;10.72;4.85;;;;;;;19.07;100.00;96160.27;1712836;83;21102;-79
2022/08/20 04:12:11;;;;;;;9.83;5.05;;;;;;;19.06;100.00;96168.69;1711701;82;21023;-79
2022/08/20 04:14:36;;;;;;;13.03;4.90;;;;;;;19.06;100.00;96171.84;1711252;82;20972;-79
2022/08/20 04:17:08;;;;;;;9.35;4.33;;;;;;;19.07;100.00;96174.23;1714413;82;21547;-80
2022/08/20 04:19:36;;;;;;;16.65;5.12;;;;;;;19.05;100.00;96178.94;1720784;83;20950;-79
2022/08/20 04:22:01;;;;;;;12.43;5.58;;;;;;;19.09;100.00;96183.20;1693911;84;21088;-79
2022/08/20 04:24:27;;;;;;;9.60;5.20;;;;;;;19.05;100.00;96173.67;1700958;83;21095;-79
2022/08/20 04:26:53;;;;;;;10.38;4.47;;;;;;;19.02;100.00;96165.43;1745047;80;21668;-79
2022/08/20 04:29:24;;;;;;;10.65;5.00;;;;;;;19.00;100.00;96164.36;1747760;80;20995;-79
2022/08/20 04:31:51;;;;;;;9.65;5.03;;;;;;;19.00;100.00;96164.88;1723970;81;21391;-79
2022/08/20 04:34:18;;;;;;;9.80;4.90;;;;;;;19.01;100.00;96161.20;1748718;80;20987;-79
2022/08/20 04:36:48;;;;;;;10.78;4.87;;;;;;;19.01;100.00;96162.00;1747531;80;21027;-79
2022/08/20 04:39:14;;;;;;;12.78;5.92;;;;;;;19.00;100.00;96156.45;1749248;81;21517;-79
2022/08/20 04:41:41;;;;;;;13.08;4.95;;;;;;;19.00;100.00;96160.92;1748168;80;21051;-80
2022/08/20 04:44:07;;;;;;;9.03;4.83;;;;;;;18.99;100.00;96164.08;1744398;80;20922;-79
2022/08/20 04:46:33;;;;;;;13.45;5.58;;;;;;;18.99;100.00;96154.06;1746551;80;21417;-79
2022/08/20 04:49:00;;;;;;;12.30;6.55;;;;;;;18.96;100.00;96150.08;1748706;80;21362;-79
2022/08/20 04:51:25;;;;;;;12.03;5.47;;;;;;;19.00;100.00;96155.66;1744187;80;21319;-79
2022/08/20 04:53:52;;;;;;;9.40;5.75;;;;;;;19.02;100.00;96153.58;1745958;80;21255;-79
2022/08/20 04:56:22;;;;;;;9.93;5.47;;;;;;;19.04;100.00;96151.02;1744841;82;21392;-79
2022/08/20 04:58:47;;;;;;;9.48;6.22;;;;;;;19.06;100.00;96155.52;1745686;80;21521;-79
2022/08/20 05:01:13;;;;;;;7.20;4.87;;;;;;;19.08;100.00;96155.27;1703134;81;20999;-79
2022/08/20 05:03:39;;;;;;;9.38;5.45;;;;;;;19.11;100.00;96152.95;1717529;81;21344;-79
2022/08/20 05:06:07;;;;;;;8.78;5.33;;;;;;;19.17;100.00;96152.50;1723693;81;20938;-79
2022/08/20 05:08:33;;;;;;;7.85;4.83;;;;;;;19.25;100.00;96150.78;1719801;81;21043;-79
2022/08/20 05:10:58;;;;;;;9.33;5.20;;;;;;;19.32;100.00;96145.34;1718729;81;21894;-80
2022/08/20 05:13:24;;;;;;;10.35;5.62;;;;;;;19.38;100.00;96147.02;1703507;81;21520;-79
2022/08/20 05:15:50;;;;;;;7.40;5.25;;;;;;;19.52;100.00;96151.39;1717829;81;20972;-79
2022/08/20 05:18:19;;;;;;;10.08;6.15;;;;;;;19.52;100.00;96151.39;1716918;81;21054;-79
2022/08/20 05:20:45;;;;;;;11.33;6.25;;;;;;;19.59;100.00;96154.18;1721932;81;21003;-79
2022/08/20 05:23:12;;;;;;;10.58;5.80;;;;;;;19.67;100.00;96155.06;1720866;81;21291;-80
2022/08/20 05:25:38;;;;;;;9.23;5.90;;;;;;;19.73;100.00;96155.42;1731476;81;20976;-79
2022/08/20 05:28:08;;;;;;;8.90;5.15;;;;;;;19.79;100.00;96153.63;1726061;81;20958;-79
2022/08/20 05:30:36;;;;;;;9.87;5.60;;;;;;;19.86;100.00;96151.63;1724163;81;20970;-79
2022/08/20 05:33:04;;;;;;;6.92;5.80;;;;;;;19.92;100.00;96154.59;1721425;81;20972;-79
2022/08/20 05:35:33;;;;;;;6.30;5.67;;;;;;;19.98;100.00;96154.91;1727262;81;20972;-79
2022/08/20 05:38:00;;;;;;;9.93;5.92;;;;;;;20.04;100.00;96154.47;1723650;81;21434;-79
2022/08/20 05:40:27;;;;;;;9.28;6.00;;;;;;;20.08;100.00;96151.09;1723686;81;21090;-79
2022/08/20 05:42:53;;;;;;;8.70;5.80;;;;;;;20.13;100.00;96149.54;1723467;81;21439;-79
2022/08/20 05:45:20;;;;;;;11.38;5.72;;;;;;;20.17;100.00;96152.75;1722636;81;21318;-79
2022/08/20 05:47:47;;;;;;;11.45;5.65;;;;;;;20.19;100.00;96152.00;1714344;81;21019;-79
2022/08/20 05:50:13;;;;;;;8.13;5.62;;;;;;;20.24;100.00;96154.69;1723707;81;20953;-79
2022/08/20 05:52:39;;;;;;;9.50;6.25;;;;;;;20.29;100.00;96162.64;1723290;81;20968;-79
2022/08/20 05:55:07;;;;;;;10.00;5.75;;;;;;;20.31;100.00;96156.59;1719022;81;21000;-79
2022/08/20 05:57:33;;;;;;;9.98;6.42;;;;;;;20.35;100.00;96166.16;1726139;81;20967;-79
2022/08/20 06:00:01;;;;;;;12.00;6.28;;;;;;;20.32;100.00;96144.99;1724016;81;21110;-79
2022/08/20 06:05:12;;;;;;;9.00;5.30;;;;;;;20.34;100.00;96145.56;1728588;81;21059;-79
2022/08/20 06:07:38;;;;;;;10.60;6.25;;;;;;;20.36;100.00;96148.75;1728694;81;21019;-79
2022/08/20 06:10:05;;;;;;;7.78;6.08;;;;;;;20.38;100.00;96147.97;1735195;81;21059;-80
2022/08/20 06:12:33;;;;;;;11.30;6.72;;;;;;;20.41;100.00;96147.20;1726876;81;21003;-79
2022/08/20 06:14:59;;;;;;;10.28;6.40;;;;;;;20.45;100.00;96143.04;1728658;81;22322;-79
2022/08/20 06:17:26;;;;;;;9.30;6.60;;;;;;;20.48;100.00;96134.62;1726701;81;21392;-79
2022/08/20 06:19:51;;;;;;;10.25;6.22;;;;;;;20.51;100.00;96135.46;1730925;81;21120;-79
2022/08/20 06:22:17;;;;;;;11.48;7.10;;;;;;;20.52;100.00;96134.41;1730112;81;21111;-79
2022/08/20 06:24:43;;;;;;;13.58;7.70;;;;;;;20.52;100.00;96131.77;1730045;81;20981;-79
2022/08/20 06:27:13;;;;;;;7.80;6.62;;;;;;;20.50;100.00;96124.60;1728216;81;20913;-79
2022/08/20 06:29:39;;;;;;;9.68;7.40;;;;;;;20.48;100.00;96135.41;1739758;81;21034;-79
2022/08/20 06:32:05;;;;;;;9.53;6.65;;;;;;;20.49;100.00;96138.84;1731167;81;21345;-79
2022/08/20 06:34:32;;;;;;;9.75;7.20;;;;;;;20.52;100.00;96133.89;1725162;81;21011;-79
2022/08/20 06:36:58;;;;;;;11.85;7.67;;;;;;;20.58;100.00;96140.80;1729397;81;22122;-79
2022/08/20 06:39:24;;;;;;;11.22;7.67;;;;;;;20.62;100.00;96143.20;1731357;81;21013;-79
2022/08/20 06:41:50;;;;;;;10.80;7.87;;;;;;;20.67;100.00;96145.11;1734173;81;20982;-80
2022/08/20 06:44:18;;;;;;;12.05;7.62;;;;;;;20.70;100.00;96144.60;1690324;83;20978;-79
2022/08/20 06:46:45;;;;;;;11.80;7.90;;;;;;;20.73;100.00;96138.81;1693174;83;21009;-79
2022/08/20 06:49:11;;;;;;;9.15;8.25;;;;;;;20.76;100.00;96143.59;1736747;81;20964;-80
2022/08/20 06:51:37;;;;;;;13.43;9.30;;;;;;;20.84;100.00;96153.70;1742593;81;21344;-79
2022/08/20 06:54:05;;;;;;;13.22;8.08;;;;;;;20.85;100.00;96164.53;1733217;81;21019;-79
2022/08/20 06:56:32;;;;;;;11.22;8.23;;;;;;;20.85;100.00;96169.81;1740404;81;20959;-79
2022/08/20 06:58:58;;;;;;;11.40;8.48;;;;;;;20.86;100.00;96166.13;1729652;80;22450;-78
2022/08/20 07:01:24;;;;;;;10.08;8.25;;;;;;;20.89;100.00;96166.14;1719130;82;21080;-79
2022/08/20 07:03:49;;;;;;;10.95;7.58;;;;;;;20.92;100.00;96165.11;1722304;82;21041;-79
2022/08/20 07:06:16;;;;;;;10.70;7.55;;;;;;;20.97;100.00;96174.38;1727204;82;20919;-80
2022/08/20 07:08:43;;;;;;;10.20;7.42;;;;;;;21.04;100.00;96168.11;1723102;82;20983;-80
2022/08/20 07:11:09;;;;;;;9.25;8.30;;;;;;;21.15;100.00;96171.08;1723044;82;21338;-79
2022/08/20 07:13:36;;;;;;;10.38;7.50;;;;;;;21.21;100.00;96166.13;1720118;82;21064;-80
2022/08/20 07:16:04;;;;;;;11.68;8.20;;;;;;;21.25;100.00;96165.38;1724789;81;21017;-80
2022/08/20 07:18:30;;;;;;;10.58;8.08;;;;;;;21.27;100.00;96161.16;1722452;82;20980;-80
2022/08/20 07:20:56;;;;;;;11.50;8.28;;;;;;;21.29;100.00;96160.37;1725212;82;21008;-80
2022/08/20 07:23:24;;;;;;;11.78;8.25;;;;;;;21.33;100.00;96165.45;1718177;81;21671;-80
2022/08/20 07:25:49;;;;;;;10.48;8.50;;;;;;;21.38;100.00;96166.80;1718415;82;21087;-80
2022/08/20 07:28:18;;;;;;;12.37;9.03;;;;;;;21.45;100.00;96170.00;1728522;81;21369;-80
2022/08/20 07:33:29;;;;;;;10.28;8.65;;;;;;;21.56;100.00;96162.41;1731253;82;20954;-80
2022/08/20 07:35:59;;;;;;;10.48;8.33;;;;;;;21.65;100.00;96168.55;1725439;82;21522;-80
2022/08/20 07:38:26;;;;;;;10.60;8.10;;;;;;;21.66;100.00;96168.81;1719593;82;21609;-80
2022/08/20 07:40:56;;;;;;;9.90;8.25;;;;;;;21.75;100.00;96177.83;1731889;82;21078;-80
2022/08/20 07:43:22;;;;;;;9.45;8.45;;;;;;;21.82;100.00;96178.41;1715665;82;21490;-80
2022/08/20 07:45:51;;;;;;;12.25;8.93;;;;;;;21.88;100.00;96173.41;1721910;82;21035;-80
2022/08/20 07:48:16;;;;;;;8.78;7.50;;;;;;;21.95;100.00;96169.98;1729996;81;20987;-81
2022/08/20 07:50:42;;;;;;;11.85;8.68;;;;;;;22.01;100.00;96165.53;1730401;82;21002;-80
2022/08/20 07:53:08;;;;;;;10.32;7.80;;;;;;;22.06;100.00;96158.42;1721370;82;21045;-80
2022/08/20 07:55:33;;;;;;;9.83;8.88;;;;;;;22.13;100.00;96164.28;1718206;82;21290;-80
2022/08/20 07:58:13;;;;;;;12.15;9.15;;;;;;;22.23;100.00;96164.83;1721551;82;20996;-79
2022/08/20 08:00:39;;;;;;;10.78;8.35;;;;;;;22.29;100.00;96163.80;1731681;80;21388;-80
2022/08/20 08:03:05;;;;;;;10.28;9.08;;;;;;;22.36;100.00;96166.98;1744411;80;20965;-81
2022/08/20 08:05:33;;;;;;;13.50;9.53;;;;;;;22.40;100.00;96160.11;1746088;80;21013;-80
2022/08/20 08:07:59;;;;;;;12.45;9.73;;;;;;;22.49;100.00;96156.95;1749048;80;20933;-80
2022/08/20 08:10:25;;;;;;;13.38;9.33;;;;;;;22.55;100.00;96160.66;1732590;80;20993;-80
2022/08/20 08:12:55;;;;;;;9.83;8.68;;;;;;;22.62;100.00;96169.70;1744099;80;21462;-80
2022/08/20 08:15:27;;;;;;;14.03;8.53;;;;;;;22.66;100.00;96166.78;1745493;80;21038;-80
2022/08/20 08:17:54;;;;;;;11.78;9.43;;;;;;;22.70;99.02;96169.95;1705804;82;20991;-80
2022/08/20 08:20:22;;;;;;;13.03;8.70;;;;;;;22.75;100.00;96169.16;1724202;82;21327;-79
2022/08/20 08:22:48;;;;;;;11.35;8.03;;;;;;;22.81;100.00;96166.00;1713586;82;20960;-80
2022/08/20 08:25:14;;;;;;;15.63;8.60;;;;;;;22.85;98.21;96170.53;1715626;82;20975;-81
2022/08/20 08:27:40;;;;;;;13.48;8.90;;;;;;;22.98;100.00;96174.52;1719433;82;20992;-80
2022/08/20 08:30:07;;;;;;;15.65;9.28;;;;;;;23.10;100.00;96172.90;1712426;82;21034;-80
2022/08/20 08:33:26;;;;;;;13.10;10.50;;;;;;;23.15;99.53;96177.69;1725176;83;21401;-80
2022/08/20 08:35:07;;;;;;;13.60;8.88;;;;;;;23.23;100.00;96177.13;1713691;83;21464;-80
2022/08/20 08:37:34;;;;;;;14.28;8.33;;;;;;;23.28;99.92;96177.15;1715858;83;21387;-80
2022/08/20 08:40:00;;;;;;;11.88;8.88;;;;;;;23.31;99.89;96169.98;1709108;82;21074;-80
2022/08/20 08:42:39;;;;;;;12.73;9.13;;;;;;;23.34;99.52;96177.39;1711091;82;21030;-80
2022/08/20 08:45:07;;;;;;;15.13;9.45;;;;;;;23.34;99.14;96174.75;1721933;82;21386;-82
2022/08/20 08:47:36;;;;;;;12.05;8.50;;;;;;;23.33;99.77;96178.99;1713598;82;21441;-80
2022/08/20 08:50:05;;;;;;;12.18;8.85;;;;;;;23.30;99.86;96176.88;1716235;82;20951;-79
2022/08/20 08:52:34;;;;;;;11.70;9.45;;;;;;;23.25;99.80;96185.61;1701127;83;20962;-80
2022/08/20 08:55:04;;;;;;;11.85;8.58;;;;;;;23.22;99.71;96185.36;1720953;82;21038;-80
2022/08/20 08:57:30;;;;;;;11.75;9.38;;;;;;;23.17;100.00;96184.05;1716779;82;20956;-80
2022/08/20 09:00:05;;;;;;;13.00;9.75;;;;;;;23.11;99.93;96195.72;1714529;82;21529;-79
2022/08/20 09:02:32;;;;;;;10.50;8.45;;;;;;;23.02;98.99;96203.39;1707708;82;20977;-80
2022/08/20 09:05:00;;;;;;;11.03;9.28;;;;;;;22.97;99.77;96203.39;1732928;82;20991;-80
2022/08/20 09:07:30;;;;;;;15.38;9.45;;;;;;;22.92;99.98;96200.72;1708759;82;20956;-81
2022/08/20 09:09:57;;;;;;;13.95;9.80;;;;;;;22.86;99.78;96190.66;1744917;80;21011;-80
2022/08/20 09:12:23;;;;;;;11.85;9.35;;;;;;;22.82;99.98;96187.45;1745621;80;21032;-80
2022/08/20 09:14:50;;;;;;;11.30;10.10;;;;;;;22.77;99.85;96179.75;1743744;80;20978;-80
2022/08/20 09:17:19;;;;;;;12.07;9.65;;;;;;;22.72;100.00;96178.43;1742445;80;20943;-81
2022/08/20 09:19:44;;;;;;;13.08;10.95;;;;;;;22.68;100.00;96180.02;1750569;80;21009;-81
2022/08/20 09:22:16;;;;;;;14.38;10.25;;;;;;;22.67;100.00;96178.43;1748058;80;20957;-80
2022/08/20 09:24:42;;;;;;;11.48;10.15;;;;;;;22.67;100.00;96177.11;1708384;83;21006;-81
2022/08/20 09:27:08;;;;;;;15.93;9.93;;;;;;;22.67;100.00;96173.13;1745214;80;21344;-81
2022/08/20 09:29:34;;;;;;;11.83;10.18;;;;;;;22.72;100.00;96173.13;1751171;80;20998;-80
2022/08/20 09:32:11;;;;;;;15.15;10.58;;;;;;;22.72;100.00;96170.48;1748041;80;21014;-80
2022/08/20 09:34:42;;;;;;;13.78;10.28;;;;;;;22.73;100.00;96173.39;1751236;81;21006;-81
2022/08/20 09:37:08;;;;;;;15.28;9.80;;;;;;;22.72;100.00;96173.13;1711039;82;21397;-81
2022/08/20 09:39:34;;;;;;;11.73;9.60;;;;;;;22.70;100.00;96176.58;1749440;80;21041;-80
2022/08/20 09:42:14;;;;;;;15.23;10.28;;;;;;;22.64;100.00;96172.34;1749447;81;21414;-80
2022/08/20 09:44:40;;;;;;;11.43;8.55;;;;;;;22.60;100.00;96177.88;1748242;80;21428;-80
2022/08/20 09:47:06;;;;;;;12.80;9.13;;;;;;;22.58;100.00;96177.34;1747414;80;21026;-80
2022/08/20 09:49:36;;;;;;;13.55;10.70;;;;;;;22.56;100.00;96176.81;1753099;80;21080;-80
2022/08/20 09:52:02;;;;;;;17.98;9.70;;;;;;;22.56;100.00;96176.81;1720778;81;21012;-80
2022/08/20 09:54:29;;;;;;;13.30;9.18;;;;;;;22.55;100.00;96183.17;1750464;80;20948;-80
2022/08/20 09:56:56;;;;;;;15.40;8.93;;;;;;;22.54;100.00;96191.38;1718597;81;21033;-80
2022/08/20 09:59:22;;;;;;;16.77;8.00;;;;;;;22.47;100.00;96182.37;1748757;80;21054;-80
2022/08/20 10:01:48;;;;;;;13.00;7.08;;;;;;;22.48;100.00;96190.58;1739040;81;21466;-81
2022/08/20 10:04:14;;;;;;;11.38;6.90;;;;;;;22.40;100.00;96183.13;1717608;81;21040;-80
2022/08/20 10:06:40;;;;;;;12.47;7.17;;;;;;;22.29;99.28;96191.59;1739261;81;20989;-80
2022/08/20 10:09:06;;;;;;;14.98;6.70;;;;;;;22.16;99.09;96191.55;1740736;81;20965;-80
2022/08/20 10:11:32;;;;;;;15.53;6.87;;;;;;;22.05;99.19;96194.41;1736124;80;21343;-80
2022/08/20 10:13:58;;;;;;;10.82;7.25;;;;;;;21.95;99.24;96195.11;1740486;80;20971;-80
2022/08/20 10:16:23;;;;;;;11.75;7.50;;;;;;;21.74;99.36;96184.97;1742798;81;20977;-80
2022/08/20 10:18:49;;;;;;;12.43;6.80;;;;;;;21.74;99.36;96184.97;1745485;81;21005;-80
2022/08/20 10:21:15;;;;;;;10.98;6.92;;;;;;;21.64;99.48;96182.29;1743189;80;21009;-79
2022/08/20 10:23:40;;;;;;;12.65;7.83;;;;;;;21.65;99.54;96199.74;1740875;80;21296;-80
2022/08/20 10:26:08;;;;;;;9.73;7.72;;;;;;;21.54;99.88;96190.16;1735254;80;20939;-80
2022/08/20 10:28:34;;;;;;;12.07;7.30;;;;;;;21.54;99.88;96190.16;1740149;80;20928;-80
2022/08/20 10:31:00;;;;;;;12.05;7.83;;;;;;;21.50;100.00;96190.40;1741602;80;21455;-80
2022/08/20 10:33:27;;;;;;;12.78;8.13;;;;;;;21.44;99.95;96190.87;1734742;80;21056;-80
2022/08/20 10:35:53;;;;;;;8.80;7.17;;;;;;;21.40;99.81;96187.16;1739965;81;21009;-80
2022/08/20 10:38:19;;;;;;;14.50;8.05;;;;;;;21.36;100.00;96187.40;1743961;80;21203;-80
2022/08/20 10:40:45;;;;;;;13.62;8.43;;;;;;;21.31;99.83;96189.98;1719658;81;20962;-79
2022/08/20 10:43:11;;;;;;;11.75;8.68;;;;;;;21.26;99.90;96193.40;1746517;81;20926;-79
2022/08/20 10:45:36;;;;;;;12.53;9.35;;;;;;;21.25;100.00;96194.97;1740685;81;21335;-79
2022/08/20 10:48:02;;;;;;;20.80;10.65;;;;;;;21.21;100.00;96203.11;1738371;80;21305;-79
2022/08/20 10:50:28;;;;;;;22.52;10.40;;;;;;;21.14;100.00;96203.84;1741942;81;21000;-79
2022/08/20 10:52:54;;;;;;;10.95;8.90;;;;;;;21.10;100.00;96202.23;1738349;80;22193;-80
2022/08/20 10:55:20;;;;;;;10.43;7.55;;;;;;;21.05;100.00;96214.61;1741481;80;21012;-79
2022/08/20 10:57:45;;;;;;;11.43;7.80;;;;;;;21.00;100.00;96226.46;1740946;80;21021;-79
2022/08/20 11:00:15;;;;;;;9.93;7.97;;;;;;;20.93;100.00;96231.94;1734445;80;21062;-80
2022/08/20 11:02:41;;;;;;;11.48;7.85;;;;;;;20.87;100.00;96239.02;1712836;82;21004;-80
2022/08/20 11:05:07;;;;;;;8.55;7.22;;;;;;;20.83;100.00;96237.94;1724230;82;20946;-81
2022/08/20 11:07:36;;;;;;;8.93;7.72;;;;;;;20.78;100.00;96229.94;1726631;82;21067;-80
2022/08/20 11:10:03;;;;;;;10.60;7.78;;;;;;;20.73;100.00;96217.23;1721074;81;21068;-80
2022/08/20 11:12:30;;;;;;;8.73;7.72;;;;;;;20.69;100.00;96215.61;1718972;82;20964;-79
2022/08/20 11:14:55;;;;;;;10.00;7.62;;;;;;;20.64;100.00;96207.09;1723255;82;21064;-79
2022/08/20 11:17:27;;;;;;;9.83;7.62;;;;;;;20.58;100.00;96209.42;1723766;82;21029;-79
2022/08/20 11:19:53;;;;;;;8.45;6.87;;;;;;;20.55;100.00;96213.89;1716785;82;20994;-79
2022/08/20 11:22:19;;;;;;;11.75;7.17;;;;;;;20.52;100.00;96222.31;1719197;82;20976;-80
2022/08/20 11:24:45;;;;;;;10.53;8.23;;;;;;;20.47;100.00;96218.27;1720044;81;21282;-79
2022/08/20 11:27:14;;;;;;;10.82;6.95;;;;;;;20.43;100.00;96219.02;1725949;82;20953;-79
2022/08/20 11:29:39;;;;;;;13.80;6.90;;;;;;;20.38;100.00;96209.98;1677022;82;21055;-80